createdAt,value
2022-09-05T00:05:55.465Z,89.29
2022-09-05T00:11:42.487Z,89.50
2022-09-05T00:17:27.803Z,89.88
2022-09-05T00:24:26.251Z,90.12
2022-09-05T00:28:52.082Z,89.49
2022-09-05T00:31:55.559Z,89.03
2022-09-05T00:37:52.605Z,89.21
2022-09-05T00:43:33.859Z,89.50
2022-09-05T00:52:10.605Z,90.05
2022-09-05T00:55:14.282Z,90.27
2022-09-05T00:58:09.537Z,90.43
2022-09-05T01:00:59.435Z,91.45
2022-09-05T01:03:57.959Z,91.71
2022-09-05T01:06:57.164Z,92.20
2022-09-05T01:12:53.134Z,92.73
2022-09-05T01:15:44.537Z,92.12
2022-09-05T01:21:52.049Z,92.02
2022-09-05T01:29:13.020Z,92.65
2022-09-05T01:30:51.971Z,92.64
2022-09-05T01:36:41.928Z,91.96
2022-09-05T01:42:31.715Z,93.11
2022-09-05T01:48:13.635Z,92.84
2022-09-05T01:53:56.390Z,94.36
2022-09-05T01:59:40.359Z,96.29
2022-09-05T02:05:47.277Z,96.13
2022-09-05T02:11:11.732Z,99.23
2022-09-05T02:16:50.798Z,100.00
2022-09-05T02:22:32.935Z,100.00
2022-09-05T02:28:06.303Z,100.00
2022-09-05T02:33:47.859Z,100.00
2022-09-05T02:36:41.429Z,100.00
2022-09-05T02:45:18.802Z,100.00
2022-09-05T02:48:15.594Z,100.00
2022-09-05T02:57:34.405Z,98.73
2022-09-05T02:59:59.723Z,97.83
2022-09-05T03:12:29.627Z,99.34
2022-09-05T03:19:23.846Z,100.00
2022-09-05T03:22:37.140Z,99.97
2022-09-05T03:32:44.610Z,99.61
2022-09-05T03:36:13.159Z,100.00
2022-09-05T03:42:29.112Z,100.00
2022-09-05T03:45:39.759Z,100.00
2022-09-05T03:48:37.852Z,100.00
2022-09-05T03:57:16.514Z,100.00
2022-09-05T03:58:28.114Z,100.00
2022-09-05T04:08:13.808Z,100.00
2022-09-05T04:08:24.461Z,100.00
2022-09-05T04:12:42.684Z,100.00
2022-09-05T04:18:32.675Z,100.00
2022-09-05T04:24:08.697Z,100.00
2022-09-05T04:27:40.022Z,100.00
2022-09-05T04:30:49.689Z,100.00
2022-09-05T04:36:24.565Z,100.00
2022-09-05T04:39:28.374Z,100.00
2022-09-05T04:45:17.491Z,100.00
2022-09-05T04:48:08.298Z,100.00
2022-09-05T04:51:11.634Z,100.00
2022-09-05T04:54:05.369Z,100.00
2022-09-05T05:01:47.359Z,100.00
2022-09-05T05:17:38.295Z,100.00
2022-09-05T05:23:07.947Z,100.00
2022-09-05T05:28:53.500Z,100.00
2022-09-05T05:31:45.015Z,100.00
2022-09-05T05:34:35.602Z,100.00
2022-09-05T05:43:16.820Z,100.00
2022-09-05T05:48:56.990Z,100.00
2022-09-05T05:54:34.984Z,98.65
2022-09-05T06:01:40.888Z,98.04
2022-09-05T06:04:45.200Z,97.64
2022-09-05T06:14:51.207Z,96.30
2022-09-05T06:17:38.165Z,94.92
2022-09-05T06:24:43.003Z,95.86
2022-09-05T06:28:01.469Z,95.94
2022-09-05T06:33:52.884Z,95.79
2022-09-05T06:36:51.376Z,95.78
2022-09-05T06:39:51.885Z,94.95
2022-09-05T06:45:49.531Z,92.75
2022-09-05T06:52:17.915Z,89.97
2022-09-05T06:58:10.872Z,87.46
2022-09-05T07:03:59.057Z,82.76
2022-09-05T07:10:22.022Z,72.07
2022-09-05T07:15:44.398Z,67.91
2022-09-05T07:21:26.356Z,67.42
2022-09-05T07:27:05.087Z,70.60
2022-09-05T07:30:01.705Z,70.48
2022-09-05T07:35:42.177Z,70.86
2022-09-05T07:38:45.600Z,70.31
2022-09-05T07:44:11.190Z,72.29
2022-09-05T07:50:42.883Z,70.35
2022-09-05T07:58:43.961Z,64.79
2022-09-05T08:04:27.869Z,62.66
2022-09-05T08:10:10.458Z,62.00
2022-09-05T08:16:13.544Z,57.35
2022-09-05T08:21:31.131Z,56.88
2022-09-05T08:24:23.873Z,57.99
2022-09-05T08:27:16.424Z,57.99
2022-09-05T08:30:25.574Z,57.06
2022-09-05T08:35:46.666Z,58.19
2022-09-05T08:41:51.137Z,61.55
2022-09-05T08:46:40.241Z,62.52
2022-09-05T08:50:28.953Z,61.36
2022-09-05T08:56:13.206Z,62.43
2022-09-05T09:02:45.056Z,64.14
2022-09-05T09:07:51.636Z,66.30
2022-09-05T09:10:38.076Z,66.34
2022-09-05T09:16:19.353Z,67.61
2022-09-05T09:21:52.330Z,67.97
2022-09-05T09:30:34.700Z,71.16
2022-09-05T09:39:38.759Z,74.10
2022-09-05T09:45:29.026Z,74.46
2022-09-05T09:51:41.454Z,75.84
2022-09-05T09:58:29.348Z,78.01
2022-09-05T10:10:33.100Z,79.42
2022-09-05T10:13:35.666Z,80.14
2022-09-05T10:16:54.940Z,80.01
2022-09-05T10:22:52.482Z,77.64
2022-09-05T10:26:01.950Z,76.84
2022-09-05T10:35:06.907Z,75.40
2022-09-05T10:37:36.385Z,75.10
2022-09-05T10:46:07.191Z,70.35
2022-09-05T10:48:57.886Z,66.87
2022-09-05T10:51:51.907Z,65.70
2022-09-05T10:57:38.328Z,65.56
2022-09-05T11:03:38.518Z,63.33
2022-09-05T11:09:32.648Z,62.65
2022-09-05T11:12:29.683Z,60.05
2022-09-05T11:21:01.785Z,57.25
2022-09-05T11:23:57.104Z,55.89
2022-09-05T11:29:37.367Z,56.14
2022-09-05T11:40:06.173Z,54.53
2022-09-05T11:40:24.004Z,54.74
2022-09-05T11:48:32.864Z,54.18
2022-09-05T11:52:07.566Z,54.58
2022-09-05T11:58:44.227Z,54.28
2022-09-05T12:01:42.419Z,54.41
2022-09-05T12:07:31.491Z,53.88
2022-09-05T12:10:46.475Z,54.10
2022-09-05T12:22:37.171Z,53.92
2022-09-05T12:29:26.251Z,53.96
2022-09-05T12:36:07.081Z,54.31
2022-09-05T12:41:35.166Z,55.03
2022-09-05T12:45:42.153Z,54.47
2022-09-05T12:48:39.384Z,54.74
2022-09-05T12:59:43.411Z,54.78
2022-09-05T13:09:05.092Z,54.76
2022-09-05T13:20:39.238Z,54.50
2022-09-05T13:23:30.309Z,54.89
2022-09-05T13:29:10.470Z,53.96
2022-09-05T13:37:59.037Z,53.49
2022-09-05T13:43:38.155Z,52.79
2022-09-05T13:46:31.242Z,52.97
2022-09-05T13:52:16.898Z,53.21
2022-09-05T13:58:07.923Z,47.18
2022-09-05T14:01:19.555Z,46.15
2022-09-05T14:07:44.793Z,42.89
2022-09-05T14:16:31.580Z,44.29
2022-09-05T14:22:22.267Z,41.50
2022-09-05T14:27:52.421Z,42.96
2022-09-05T14:37:53.651Z,41.37
2022-09-05T14:37:54.128Z,40.29
2022-09-05T14:42:54.677Z,41.18
2022-09-05T14:48:59.813Z,41.25
2022-09-05T14:51:49.720Z,41.34
2022-09-05T15:02:39.546Z,44.26
2022-09-05T15:11:24.029Z,43.48
2022-09-05T15:12:21.743Z,42.31
2022-09-05T15:14:59.213Z,42.35
2022-09-05T15:20:37.764Z,43.10
2022-09-05T15:26:26.619Z,43.09
2022-09-05T15:32:09.059Z,44.52
2022-09-05T15:37:44.890Z,44.83
2022-09-05T15:48:50.086Z,43.33
2022-09-05T15:51:45.534Z,42.93
2022-09-05T16:00:46.151Z,40.32
2022-09-05T16:10:50.848Z,40.71
2022-09-05T16:12:58.435Z,41.52
2022-09-05T16:20:40.992Z,42.02
2022-09-05T16:23:30.262Z,42.61
2022-09-05T16:30:47.839Z,42.31
2022-09-05T16:33:36.459Z,42.43
2022-09-05T16:39:11.535Z,41.48
2022-09-05T16:44:52.595Z,43.30
2022-09-05T16:50:34.814Z,44.24
2022-09-05T16:53:33.304Z,44.45
2022-09-05T16:59:24.103Z,44.34
2022-09-05T17:05:07.983Z,44.84
2022-09-05T17:13:46.204Z,45.47
2022-09-05T17:19:20.466Z,46.19
2022-09-05T17:29:31.432Z,46.90
2022-09-05T17:37:47.210Z,49.45
2022-09-05T17:40:48.388Z,49.45
2022-09-05T17:49:19.393Z,50.25
2022-09-05T17:52:25.286Z,50.25
2022-09-05T17:55:48.181Z,51.02
2022-09-05T17:58:49.674Z,51.02
2022-09-05T18:01:29.644Z,51.37
2022-09-05T18:11:01.649Z,52.14
2022-09-05T18:20:00.265Z,53.15
2022-09-05T18:28:42.740Z,54.28
2022-09-05T18:34:51.921Z,55.74
2022-09-05T18:38:16.444Z,56.27
2022-09-05T18:44:13.300Z,58.48
2022-09-05T18:50:24.210Z,58.22
2022-09-05T18:56:11.054Z,58.92
2022-09-05T19:01:18.022Z,59.60
2022-09-05T19:09:42.854Z,60.69
2022-09-05T19:12:46.543Z,60.84
2022-09-05T19:18:26.509Z,61.81
2022-09-05T19:24:04.080Z,63.30
2022-09-05T19:27:35.821Z,63.97
2022-09-05T19:36:53.009Z,65.13
2022-09-05T19:37:03.123Z,65.18
2022-09-05T19:47:35.282Z,65.55
2022-09-05T19:47:38.166Z,65.68
2022-09-05T19:50:08.830Z,66.42
2022-09-05T19:55:57.873Z,67.09
2022-09-05T20:01:44.013Z,67.37
2022-09-05T20:04:37.678Z,67.64
2022-09-05T20:10:08.061Z,66.80
2022-09-05T20:28:51.514Z,69.37
2022-09-05T20:32:06.608Z,69.45
2022-09-05T20:36:57.914Z,68.40
2022-09-05T20:43:10.967Z,68.77
2022-09-05T20:43:57.851Z,69.39
2022-09-05T20:54:05.000Z,70.19
2022-09-05T20:54:17.179Z,70.11
2022-09-05T20:54:27.970Z,70.93
2022-09-05T20:55:40.368Z,72.19
2022-09-05T21:01:21.835Z,75.04
2022-09-05T21:06:54.599Z,77.11
2022-09-05T21:12:52.593Z,78.04
2022-09-05T21:18:47.481Z,79.17
2022-09-05T21:24:24.121Z,80.31
2022-09-05T21:30:23.059Z,81.21
2022-09-05T21:36:20.855Z,82.21
2022-09-05T21:47:35.074Z,82.80
2022-09-05T21:47:43.207Z,82.97
2022-09-05T21:54:46.012Z,82.30
2022-09-05T21:59:32.837Z,82.45
2022-09-05T22:01:50.773Z,82.15
2022-09-05T22:07:19.479Z,82.67
2022-09-05T22:10:11.595Z,83.06
2022-09-05T22:15:48.848Z,81.18
2022-09-05T22:18:38.803Z,82.21
2022-09-05T22:24:18.984Z,82.36
2022-09-05T22:29:56.123Z,83.40
2022-09-05T22:35:29.933Z,84.52
2022-09-05T22:38:20.242Z,83.95
2022-09-05T22:43:55.420Z,85.53
2022-09-05T22:49:30.507Z,85.03
2022-09-05T22:55:07.442Z,84.84
2022-09-05T23:00:38.128Z,86.56
2022-09-05T23:06:18.966Z,87.35
2022-09-05T23:11:54.375Z,88.09
2022-09-05T23:17:33.016Z,88.42
2022-09-05T23:20:22.430Z,88.57
2022-09-05T23:23:11.589Z,88.32
2022-09-05T23:26:02.467Z,88.36
2022-09-05T23:31:37.262Z,87.86
2022-09-05T23:37:10.850Z,88.15
2022-09-05T23:42:53.321Z,88.94
2022-09-05T23:45:41.822Z,89.98
2022-09-05T23:48:31.112Z,90.39
2022-09-05T23:51:19.886Z,90.34
2022-09-05T23:54:08.545Z,90.46
2022-09-05T23:59:41.522Z,90.97
